Time;durP1;ratioP1;P1;durP2;ratioP2;P2;SDS_P1;SDS_P2;PMS_P1;PMS_P2;Temp;Humidity;BMP_temperature;BMP_pressure;BME280_temperature;BME280_humidity;BME280_pressure;Samples;Min_cycle;Max_cycle;Signal;HPM_P1;HPM_P2
2022/07/13 00:02:15;;;;;;;;;5.00;5.00;;;;;29.28;28.56;101712.06;4957240;28;45361;-74
2022/07/13 00:04:40;;;;;;;;;4.00;4.00;;;;;29.21;29.49;101705.94;4957029;28;45320;-74
2022/07/13 00:07:06;;;;;;;;;3.67;3.67;;;;;29.18;28.55;101709.69;4957478;28;45440;-74
2022/07/13 00:09:31;;;;;;;;;4.33;4.33;;;;;29.18;28.43;101706.06;4957506;28;45426;-74
2022/07/13 00:11:56;;;;;;;;;4.33;4.33;;;;;29.16;28.82;101708.00;4957227;28;46415;-74
2022/07/13 00:14:22;;;;;;;;;5.00;5.00;;;;;29.14;28.47;101707.16;4957073;28;45339;-74
2022/07/13 00:16:47;;;;;;;;;4.00;4.00;;;;;29.19;28.26;101724.25;4957468;28;45477;-74
2022/07/13 00:19:12;;;;;;;;;4.33;4.33;;;;;29.09;29.22;101702.78;4956948;28;45615;-74
2022/07/13 00:21:38;;;;;;;;;4.00;3.67;;;;;29.07;29.57;101703.81;4957202;28;45651;-74
2022/07/13 00:24:03;;;;;;;;;5.00;3.00;;;;;29.04;30.12;101698.47;4957062;28;45401;-74
2022/07/13 00:26:29;;;;;;;;;4.33;4.33;;;;;29.05;29.92;101714.81;4957020;28;45429;-74
2022/07/13 00:28:54;;;;;;;;;4.67;3.33;;;;;29.00;29.96;101696.84;4957255;28;45440;-74
2022/07/13 00:31:19;;;;;;;;;6.33;3.67;;;;;29.00;30.17;101703.22;4956954;28;46497;-74
2022/07/13 00:33:45;;;;;;;;;4.67;4.00;;;;;28.83;30.34;101676.63;4956853;28;45338;-74
2022/07/13 00:36:10;;;;;;;;;5.67;4.33;;;;;28.90;30.41;101702.72;4956881;28;45391;-74
2022/07/13 00:38:36;;;;;;;;;3.00;3.00;;;;;28.82;29.82;101696.69;4957146;28;45475;-74
2022/07/13 00:41:04;;;;;;;;;3.67;3.00;;;;;28.69;30.02;101685.41;4956761;28;46467;-74
2022/07/13 00:43:30;;;;;;;;;4.00;4.00;;;;;28.63;30.23;101687.50;4956704;28;45430;-74
2022/07/13 00:45:55;;;;;;;;;4.00;3.00;;;;;28.51;30.72;101658.81;4955409;28;45385;-74
2022/07/13 00:48:21;;;;;;;;;4.67;4.00;;;;;28.66;30.24;101690.97;4956620;28;45582;-74
2022/07/13 00:50:47;;;;;;;;;2.00;2.00;;;;;28.68;30.22;101693.66;4956770;28;46093;-74
2022/07/13 00:53:13;;;;;;;;;4.67;4.67;;;;;28.68;30.12;101691.81;4956616;28;45296;-74
2022/07/13 00:55:39;;;;;;;;;8.00;5.00;;;;;28.64;29.73;101687.44;4956630;28;45295;-74
2022/07/13 00:58:07;;;;;;;;;5.00;5.00;;;;;28.67;29.45;101697.34;4956609;28;45163;-74
2022/07/13 01:00:33;;;;;;;;;4.67;4.67;;;;;28.62;29.87;101688.41;4956431;28;45512;-74
2022/07/13 01:02:58;;;;;;;;;5.67;4.67;;;;;28.56;31.14;101684.09;4956223;28;45299;-74
2022/07/13 01:05:24;;;;;;;;;5.67;4.00;;;;;28.59;31.13;101683.97;4956581;28;45303;-74
2022/07/13 01:07:49;;;;;;;;;4.33;4.00;;;;;28.55;31.44;101680.50;4955404;28;45423;-74
2022/07/13 01:10:15;;;;;;;;;4.00;4.00;;;;;28.50;31.47;101670.72;4956428;28;46003;-74
2022/07/13 01:12:40;;;;;;;;;4.67;4.67;;;;;28.53;30.97;101686.97;4956337;28;45516;-74
2022/07/13 01:15:07;;;;;;;;;5.00;5.00;;;;;28.44;30.63;101681.88;4956731;28;45367;-74
2022/07/13 01:17:35;;;;;;;;;4.33;4.33;;;;;28.21;31.21;101649.16;4956068;28;45398;-74
2022/07/13 01:20:01;;;;;;;;;5.00;4.33;;;;;28.42;30.43;101681.94;4956264;28;46366;-74
2022/07/13 01:22:38;;;;;;;;;6.67;5.00;;;;;28.16;31.25;101644.84;4956173;28;45474;-74
2022/07/13 01:25:04;;;;;;;;;6.00;4.00;;;;;28.36;30.87;101674.91;4956565;28;45381;-74
2022/07/13 01:27:34;;;;;;;;;3.00;3.00;;;;;28.29;31.31;101665.19;4956147;28;45299;-74
2022/07/13 01:29:59;;;;;;;;;8.00;3.67;;;;;28.39;31.71;101696.59;4956014;28;45515;-74
2022/07/13 01:32:25;;;;;;;;;5.00;5.00;;;;;28.24;31.42;101668.13;4955833;28;45359;-74
2022/07/13 01:34:50;;;;;;;;;6.00;5.00;;;;;28.23;31.77;101677.25;4956504;28;45357;-74
2022/07/13 01:37:15;;;;;;;;;4.33;3.33;;;;;28.20;31.55;101677.38;4956313;28;45611;-74
2022/07/13 01:39:41;;;;;;;;;4.00;3.67;;;;;28.16;31.53;101683.91;4956142;28;45966;-74
2022/07/13 01:42:06;;;;;;;;;2.33;2.00;;;;;28.13;31.72;101685.84;4956249;28;45496;-74
2022/07/13 01:44:31;;;;;;;;;7.00;6.00;;;;;28.11;32.12;101685.03;4956001;28;45420;-74
2022/07/13 01:46:57;;;;;;;;;5.00;5.00;;;;;27.98;31.97;101660.94;4955919;28;45422;-74
2022/07/13 01:49:22;;;;;;;;;7.00;4.00;;;;;27.97;31.99;101670.06;4955833;28;46461;-74
2022/07/13 01:51:48;;;;;;;;;4.67;4.33;;;;;27.95;32.22;101661.06;4956043;28;45449;-74
2022/07/13 01:54:13;;;;;;;;;6.67;5.33;;;;;28.02;32.39;101683.56;4955753;28;45408;-74
2022/07/13 01:56:39;;;;;;;;;4.67;4.67;;;;;27.94;32.50;101672.91;4955992;28;45409;-74
2022/07/13 01:59:04;;;;;;;;;4.33;4.33;;;;;27.87;32.78;101661.34;4954482;28;47118;-74
2022/07/13 02:01:30;;;;;;;;;3.67;3.67;;;;;27.87;33.06;101675.00;4955500;28;45367;-74
2022/07/13 02:03:55;;;;;;;;;5.67;5.67;;;;;27.90;33.01;101682.16;4956081;28;45371;-74
2022/07/13 02:06:21;;;;;;;;;5.00;5.00;;;;;27.85;33.00;101673.31;4955843;28;45394;-74
2022/07/13 02:08:46;;;;;;;;;6.00;5.00;;;;;27.83;32.56;101658.81;4955641;28;46412;-74
2022/07/13 02:11:16;;;;;;;;;5.00;4.00;;;;;27.80;32.64;101651.63;4956878;28;45397;-74
2022/07/13 02:13:44;;;;;;;;;4.00;4.00;;;;;27.82;32.66;101657.94;4957960;28;45454;-74
2022/07/13 02:16:09;;;;;;;;;6.00;3.33;;;;;27.85;32.97;101654.22;4958768;28;45363;-74
2022/07/13 02:18:34;;;;;;;;;5.00;5.00;;;;;27.84;33.26;101661.47;4958907;28;45346;-74
2022/07/13 02:21:00;;;;;;;;;4.67;4.67;;;;;27.90;33.19;101666.72;4957569;28;45386;-74
2022/07/13 02:23:25;;;;;;;;;3.00;3.00;;;;;27.82;33.37;101655.22;4957610;28;45307;-74
2022/07/13 02:25:50;;;;;;;;;5.33;4.33;;;;;27.88;33.42;101654.97;4959089;28;45422;-74
2022/07/13 02:28:16;;;;;;;;;5.00;4.33;;;;;27.82;33.33;101641.59;4958649;28;46353;-73
2022/07/13 02:30:41;;;;;;;;;5.33;5.33;;;;;27.81;32.88;101638.91;4958599;28;45304;-73
2022/07/13 02:33:07;;;;;;;;;5.67;4.33;;;;;27.83;32.95;101637.91;4959124;28;45452;-73
2022/07/13 02:35:32;;;;;;;;;5.00;5.00;;;;;27.95;32.68;101652.88;4958762;28;45274;-73
2022/07/13 02:37:57;;;;;;;;;4.00;4.00;;;;;27.98;32.88;101649.16;4958778;28;46673;-73
2022/07/13 02:40:23;;;;;;;;;8.33;5.00;;;;;27.91;32.82;101643.03;4958623;28;45357;-73
2022/07/13 02:42:48;;;;;;;;;4.00;4.00;;;;;27.92;32.59;101646.66;4958876;28;45604;-73
2022/07/13 02:45:14;;;;;;;;;4.67;4.67;;;;;27.94;32.41;101656.56;4958314;28;45481;-73
2022/07/13 02:47:39;;;;;;;;;6.00;6.00;;;;;27.89;32.78;101645.84;4958282;28;46688;-74
2022/07/13 02:50:05;;;;;;;;;3.67;3.67;;;;;27.92;32.84;101646.66;4958787;28;45458;-74
2022/07/13 02:52:30;;;;;;;;;8.00;6.33;;;;;27.96;32.79;101640.13;4956983;28;45426;-73
2022/07/13 02:54:55;;;;;;;;;6.00;5.00;;;;;27.84;32.73;101626.03;4958542;28;45778;-74
2022/07/13 02:57:21;;;;;;;;;5.33;5.33;;;;;27.91;33.52;101640.31;4958488;28;46306;-74
2022/07/13 02:59:46;;;;;;;;;5.00;5.00;;;;;27.93;33.46;101635.69;4958215;28;45480;-73
2022/07/13 03:02:11;;;;;;;;;5.00;5.00;;;;;27.96;33.56;101637.41;4957249;28;45548;-73
2022/07/13 03:04:37;;;;;;;;;8.00;4.00;;;;;27.96;34.04;101637.41;4958289;28;45581;-73
2022/07/13 03:07:03;;;;;;;;;3.00;3.00;;;;;27.95;34.54;101632.91;4958130;28;46557;-73
2022/07/13 03:09:28;;;;;;;;;6.67;5.67;;;;;27.89;34.75;101618.56;4958137;28;45481;-74
2022/07/13 03:11:54;;;;;;;;;5.00;5.00;;;;;28.02;35.12;101640.81;4958489;28;45484;-74
2022/07/13 03:14:20;;;;;;;;;7.00;6.00;;;;;27.99;35.22;101632.75;4958038;28;45369;-74
2022/07/13 03:16:45;;;;;;;;;0.67;0.67;;;;;27.95;34.94;101644.72;4957988;28;45572;-73
2022/07/13 03:19:11;;;;;;;;;7.67;7.00;;;;;27.93;34.69;101627.50;4958270;28;45508;-74
2022/07/13 03:21:36;;;;;;;;;6.33;6.33;;;;;27.88;34.58;101633.16;4958075;28;45391;-73
2022/07/13 03:24:02;;;;;;;;;3.67;3.00;;;;;27.90;33.70;101641.25;4957295;28;45383;-73
2022/07/13 03:26:27;;;;;;;;;7.00;5.33;;;;;27.86;34.00;101629.59;4957914;28;46142;-74
2022/07/13 03:28:53;;;;;;;;;5.67;4.00;;;;;27.87;34.36;101631.34;4957640;28;45382;-74
2022/07/13 03:31:19;;;;;;;;;5.67;4.33;;;;;27.92;34.26;101639.38;4958156;28;45784;-73
2022/07/13 03:33:44;;;;;;;;;4.33;4.33;;;;;27.91;34.99;101634.88;4958153;28;45456;-73
2022/07/13 03:36:10;;;;;;;;;4.00;4.00;;;;;27.83;35.26;101632.47;4957842;28;45578;-73
2022/07/13 03:38:36;;;;;;;;;3.00;3.00;;;;;27.87;35.59;101642.25;4957761;28;45289;-73
2022/07/13 03:41:01;;;;;;;;;4.67;4.67;;;;;27.78;35.71;101630.84;4957979;28;45481;-73
2022/07/13 03:43:26;;;;;;;;;7.67;5.00;;;;;27.89;36.21;101650.41;4956041;28;45484;-74
2022/07/13 03:45:52;;;;;;;;;5.00;5.00;;;;;27.92;35.71;101647.56;4957651;28;45781;-73
2022/07/13 03:48:18;;;;;;;;;4.00;4.00;;;;;27.93;35.61;101652.03;4957707;28;45458;-73
2022/07/13 03:50:44;;;;;;;;;5.00;5.00;;;;;27.95;36.03;101658.34;4957708;28;45326;-73
2022/07/13 03:53:10;;;;;;;;;6.00;6.00;;;;;27.84;35.78;101645.13;4957710;28;45376;-73
2022/07/13 03:55:36;;;;;;;;;3.67;3.67;;;;;27.78;35.94;101648.09;4957104;28;45396;-74
2022/07/13 03:58:02;;;;;;;;;4.00;4.00;;;;;27.75;36.01;101645.50;4957000;28;45409;-74
2022/07/13 04:00:27;;;;;;;;;5.00;3.67;;;;;27.82;36.30;101652.50;4957753;28;45633;-73
2022/07/13 04:02:52;;;;;;;;;5.33;5.33;;;;;27.75;36.23;101637.31;4957599;28;45674;-73
2022/07/13 04:05:18;;;;;;;;;5.00;5.00;;;;;27.75;36.13;101655.50;4957246;28;46251;-73
2022/07/13 04:07:43;;;;;;;;;5.00;5.00;;;;;27.59;36.31;101631.56;4957414;28;45425;-74
2022/07/13 04:10:08;;;;;;;;;7.67;6.00;;;;;27.69;36.45;101643.00;4957354;28;45452;-74
2022/07/13 04:12:34;;;;;;;;;5.33;4.00;;;;;27.70;36.36;101642.94;4955849;28;45519;-74
2022/07/13 04:14:59;;;;;;;;;4.67;3.67;;;;;27.75;36.38;101647.31;4957249;28;46480;-74
2022/07/13 04:17:24;;;;;;;;;5.67;5.33;;;;;27.77;36.32;101667.25;4956984;28;45425;-74
2022/07/13 04:19:50;;;;;;;;;5.00;5.00;;;;;27.71;36.77;101654.75;4957460;28;45478;-74
2022/07/13 04:22:15;;;;;;;;;5.00;4.00;;;;;27.76;36.24;101651.81;4957186;28;45460;-73
2022/07/13 04:24:41;;;;;;;;;6.00;4.67;;;;;27.78;36.82;101648.09;4956924;28;45488;-74
2022/07/13 04:27:06;;;;;;;;;5.00;5.00;;;;;27.76;36.80;101646.38;4956692;28;50797;-74
2022/07/13 04:29:31;;;;;;;;;4.67;4.67;;;;;27.79;36.89;101649.88;4957052;28;45426;-74
2022/07/13 04:31:57;;;;;;;;;9.00;7.00;;;;;27.77;37.01;101639.97;4954356;28;45542;-74
2022/07/13 04:34:22;;;;;;;;;5.33;5.00;;;;;27.72;37.23;101648.31;4956686;28;46222;-71
2022/07/13 04:36:47;;;;;;;;;4.33;4.33;;;;;27.63;37.51;101655.03;4956789;28;45476;-71
2022/07/13 04:39:13;;;;;;;;;6.67;5.00;;;;;27.55;37.62;101649.88;4957276;28;45428;-71
2022/07/13 04:41:39;;;;;;;;;5.33;5.00;;;;;27.50;37.81;101654.59;4955486;28;45565;-70
2022/07/13 04:44:05;;;;;;;;;5.67;5.67;;;;;27.44;37.80;101643.03;4955214;28;45457;-70
2022/07/13 04:46:30;;;;;;;;;6.33;4.33;;;;;27.43;37.71;101642.16;4956314;28;45341;-70
2022/07/13 04:48:55;;;;;;;;;8.67;7.00;;;;;27.47;37.79;101657.47;4949884;28;45377;-69
2022/07/13 04:51:20;;;;;;;;;7.33;5.67;;;;;27.42;37.67;101643.09;4941046;28;45379;-71
2022/07/13 04:53:46;;;;;;;;;9.00;8.00;;;;;27.47;37.44;101645.69;4949150;28;45396;-70
2022/07/13 04:56:12;;;;;;;;;9.00;7.00;;;;;27.48;37.77;101637.44;4952386;28;45464;-70
2022/07/13 04:58:38;;;;;;;;;7.00;6.67;;;;;27.60;37.34;101648.81;4943289;28;45413;-69
2022/07/13 05:01:06;;;;;;;;;5.33;5.00;;;;;27.62;37.67;101644.19;4946215;28;45342;-70
2022/07/13 05:03:32;;;;;;;;;6.00;4.00;;;;;27.64;38.11;101654.09;4955519;28;46142;-71
2022/07/13 05:05:58;;;;;;;;;5.67;5.67;;;;;27.67;38.07;101644.91;4955893;28;45526;-70
2022/07/13 05:08:23;;;;;;;;;4.67;4.67;;;;;27.59;38.02;101639.72;4941025;28;45426;-70
2022/07/13 05:10:49;;;;;;;;;7.33;7.33;;;;;27.55;38.05;101636.25;4937981;28;45363;-70
2022/07/13 05:13:14;;;;;;;;;6.33;5.00;;;;;27.63;38.03;101648.69;4955953;28;46244;-69
2022/07/13 05:15:40;;;;;;;;;6.33;6.33;;;;;27.57;38.39;101625.28;4956293;28;45386;-71
2022/07/13 05:18:05;;;;;;;;;6.67;6.67;;;;;27.67;38.42;101645.78;4954914;28;45451;-72
2022/07/13 05:20:30;;;;;;;;;5.67;5.00;;;;;27.67;38.42;101639.44;4955796;28;45309;-71
2022/07/13 05:22:56;;;;;;;;;2.67;1.00;;;;;27.78;38.08;101641.75;4956317;28;45501;-72
2022/07/13 05:25:21;;;;;;;;;5.67;5.67;;;;;27.81;38.37;101647.97;4951929;28;45448;-73
2022/07/13 05:27:47;;;;;;;;;6.00;6.00;;;;;27.89;38.38;101655.88;4956353;28;45321;-76
2022/07/13 05:30:12;;;;;;;;;4.00;4.00;;;;;27.88;38.97;101659.53;4939669;28;45441;-73
2022/07/13 05:32:37;;;;;;;;;6.00;6.00;;;;;27.81;38.65;101642.53;4936740;28;45551;-72
2022/07/13 05:35:03;;;;;;;;;6.00;5.67;;;;;27.87;37.73;101646.84;4936922;28;45415;-73
2022/07/13 05:37:28;;;;;;;;;5.00;5.00;;;;;27.98;37.75;101654.59;4936962;28;45441;-71
2022/07/13 05:39:54;;;;;;;;;6.67;6.67;;;;;28.03;37.67;101660.78;4936300;28;45586;-74
2022/07/13 05:42:19;;;;;;;;;8.00;8.00;;;;;28.00;36.45;101653.63;4936504;28;45402;-73
2022/07/13 05:44:45;;;;;;;;;8.33;7.00;;;;;28.02;36.70;101654.44;4935190;28;45666;-75
2022/07/13 05:47:10;;;;;;;;;5.00;5.00;;;;;27.83;35.30;101615.19;4939222;28;45509;-71
2022/07/13 05:49:35;;;;;;;;;8.00;7.00;;;;;28.00;34.98;101645.44;4939886;28;45707;-71
2022/07/13 05:52:01;;;;;;;;;9.00;7.00;;;;;28.13;34.61;101664.94;4954467;28;47992;-72
2022/07/13 05:54:26;;;;;;;;;7.00;7.00;;;;;28.05;35.04;101645.25;4939500;28;45478;-71
2022/07/13 05:56:52;;;;;;;;;7.00;7.00;;;;;28.12;34.37;101657.69;4939850;28;45418;-68
2022/07/13 05:59:17;;;;;;;;;6.00;6.00;;;;;28.16;34.31;101653.03;4952557;28;45401;-68
2022/07/13 06:01:43;;;;;;;;;6.67;6.67;;;;;28.18;33.87;101659.28;4945523;28;46400;-78
2022/07/13 06:04:08;;;;;;;;;8.00;6.67;;;;;28.18;33.78;101668.34;4953750;28;45648;-72
2022/07/13 06:06:33;;;;;;;;;7.00;7.00;;;;;28.23;34.04;101657.28;4947594;28;45357;-72
2022/07/13 06:08:59;;;;;;;;;7.00;7.00;;;;;28.27;33.62;101658.00;4941984;28;45515;-69
2022/07/13 06:11:24;;;;;;;;;10.00;9.00;;;;;28.31;33.50;101670.59;4956586;28;45673;-69
2022/07/13 06:13:49;;;;;;;;;9.00;8.00;;;;;28.34;33.35;101662.25;4954235;28;45530;-69
2022/07/13 06:16:14;;;;;;;;;7.67;7.00;;;;;28.31;33.38;101662.41;4958167;28;45377;-69
2022/07/13 06:18:40;;;;;;;;;7.00;7.00;;;;;28.29;33.17;101647.94;4957266;28;45466;-68
2022/07/13 06:21:06;;;;;;;;;5.00;5.00;;;;;28.34;32.68;101668.63;4955205;28;45644;-67
2022/07/13 06:23:31;;;;;;;;;7.33;6.00;;;;;28.40;32.46;101676.56;4968402;28;45425;-66
2022/07/13 06:25:58;;;;;;;;;6.00;6.00;;;;;28.37;32.26;101668.50;4963473;28;45785;-66
2022/07/13 06:28:23;;;;;;;;;8.00;7.00;;;;;28.38;32.37;101664.81;4950316;28;45429;-66
2022/07/13 06:30:49;;;;;;;;;7.00;7.00;;;;;28.40;32.25;101668.38;4953224;28;46360;-66
2022/07/13 06:33:14;;;;;;;;;6.67;5.67;;;;;28.50;32.26;101678.91;4949077;28;46576;-66
2022/07/13 06:35:39;;;;;;;;;5.33;5.33;;;;;28.49;32.18;101663.47;4949368;28;45420;-66
2022/07/13 06:38:05;;;;;;;;;8.00;7.00;;;;;28.49;32.10;101660.75;4957956;28;45477;-66
2022/07/13 06:40:30;;;;;;;;;6.67;6.67;;;;;28.54;32.41;101670.53;4949772;28;48099;-66
2022/07/13 06:42:55;;;;;;;;;6.33;6.33;;;;;28.52;32.36;101653.34;4952030;28;45470;-67
2022/07/13 06:45:24;;;;;;;;;7.00;6.00;;;;;28.54;31.88;101664.19;4953090;28;45649;-66
2022/07/13 06:47:51;;;;;;;;;7.00;6.00;;;;;28.65;32.09;101667.38;4948485;28;45411;-66
2022/07/13 06:50:17;;;;;;;;;6.00;5.67;;;;;28.64;32.35;101662.88;4951359;28;46353;-66
2022/07/13 06:52:43;;;;;;;;;6.00;6.00;;;;;28.69;32.00;101652.66;4948919;28;45381;-67
2022/07/13 06:55:08;;;;;;;;;5.67;5.67;;;;;28.72;31.72;101652.50;4962095;28;45388;-66
2022/07/13 06:57:35;;;;;;;;;7.00;7.00;;;;;28.72;31.52;101666.16;4966316;28;45538;-66
2022/07/13 07:00:00;;;;;;;;;6.00;6.00;;;;;28.66;31.23;101652.75;4965997;28;45521;-67
2022/07/13 07:02:25;;;;;;;;;8.33;6.00;;;;;28.69;31.18;101663.56;4967246;28;45411;-67
2022/07/13 07:04:51;;;;;;;;;8.00;6.00;;;;;28.72;31.10;101667.97;4964569;28;45534;-67
2022/07/13 07:07:17;;;;;;;;;6.67;6.67;;;;;28.73;31.08;101672.50;4965952;28;45513;-66
2022/07/13 07:09:42;;;;;;;;;7.00;7.00;;;;;28.72;31.12;101668.88;4967519;28;46394;-66
2022/07/13 07:12:07;;;;;;;;;6.33;5.33;;;;;28.73;30.89;101659.75;4967264;28;45503;-67
2022/07/13 07:14:33;;;;;;;;;6.33;5.33;;;;;28.70;31.20;101656.25;4964954;28;45464;-66
2022/07/13 07:16:59;;;;;;;;;6.67;5.00;;;;;28.80;31.01;101663.09;4967958;28;45468;-66
2022/07/13 07:19:25;;;;;;;;;7.33;6.00;;;;;28.82;31.15;101668.47;4960408;28;46561;-67
2022/07/13 07:21:50;;;;;;;;;7.00;5.67;;;;;28.86;31.02;101665.56;4957896;28;45638;-70
2022/07/13 07:24:15;;;;;;;;;7.00;6.00;;;;;28.80;31.06;101654.00;4972265;28;45487;-70
2022/07/13 07:26:41;;;;;;;;;11.00;6.33;;;;;28.79;31.48;101661.34;4957921;28;45330;-70
2022/07/13 07:29:06;;;;;;;;;6.00;6.00;;;;;28.82;32.23;101663.91;4957694;28;46236;-70
2022/07/13 07:31:31;;;;;;;;;10.67;8.00;;;;;28.80;34.60;101659.47;4939403;28;45366;-72
2022/07/13 07:33:57;;;;;;;;;8.00;7.00;;;;;28.85;35.28;101680.16;4937138;28;45300;-71
2022/07/13 07:36:22;;;;;;;;;7.00;7.00;;;;;28.81;35.94;101672.19;4946518;28;45478;-72
2022/07/13 07:38:47;;;;;;;;;10.00;6.33;;;;;28.72;33.64;101668.88;4956647;28;45386;-74
2022/07/13 07:41:13;;;;;;;;;8.67;7.00;;;;;28.68;32.23;101653.59;4957121;28;45409;-75
2022/07/13 07:43:38;;;;;;;;;5.67;5.33;;;;;28.74;34.97;101669.69;4942956;28;45505;-74
2022/07/13 07:46:04;;;;;;;;;6.00;6.00;;;;;28.74;35.48;101677.00;4952031;28;45610;-73
2022/07/13 07:48:30;;;;;;;;;6.00;6.00;;;;;28.56;35.12;101663.16;4951872;28;46552;-76
2022/07/13 07:50:55;;;;;;;;;9.67;6.33;;;;;28.61;32.56;101670.25;4947859;28;45448;-76
2022/07/13 07:53:21;;;;;;;;;8.67;7.67;;;;;28.62;33.48;101666.56;4951712;28;45576;-75
2022/07/13 07:55:46;;;;;;;;;11.00;8.00;;;;;28.64;36.69;101673.78;4951185;28;45507;-75
2022/07/13 07:58:13;;;;;;;;;5.67;5.67;;;;;28.61;36.29;101664.78;4951383;28;46124;-76
2022/07/13 08:00:44;;;;;;;;;8.67;7.67;;;;;28.64;35.05;101673.78;4954144;28;45959;-76
2022/07/13 08:03:10;;;;;;;;;7.00;6.00;;;;;28.51;35.01;101640.63;4952031;28;45433;-73
2022/07/13 08:05:36;;;;;;;;;6.00;6.00;;;;;28.60;32.74;101654.84;4945221;28;46224;-74
2022/07/13 08:08:02;;;;;;;;;6.00;6.00;;;;;28.71;35.82;101656.19;4946040;28;46302;-73
2022/07/13 08:10:28;;;;;;;;;6.00;6.00;;;;;28.75;36.24;101657.84;4947112;28;45535;-73
2022/07/13 08:12:58;;;;;;;;;7.33;7.33;;;;;28.81;32.84;101666.72;4948061;28;45803;-74
2022/07/13 08:15:23;;;;;;;;;7.67;6.00;;;;;28.79;31.99;101650.41;4947354;28;45570;-74
2022/07/13 08:17:49;;;;;;;;;6.00;6.00;;;;;28.88;35.27;101662.75;4947912;28;46488;-74
2022/07/13 08:20:14;;;;;;;;;5.67;5.67;;;;;28.84;33.90;101645.59;4947121;28;45499;-74
2022/07/13 08:22:40;;;;;;;;;6.00;6.00;;;;;28.90;36.64;101652.66;4946539;28;45957;-74
2022/07/13 08:25:05;;;;;;;;;5.67;5.67;;;;;29.00;36.23;101664.97;4946723;28;45611;-74
2022/07/13 08:27:32;;;;;;;;;7.00;6.00;;;;;28.89;33.31;101650.91;4947117;28;46617;-74
2022/07/13 08:29:58;;;;;;;;;7.67;6.33;;;;;28.99;32.33;101665.03;4946800;28;45519;-74
2022/07/13 08:32:23;;;;;;;;;4.33;4.33;;;;;29.02;32.45;101665.78;4945861;28;45511;-74
2022/07/13 08:40:20;;;;;;;;;7.00;4.67;;;;;29.07;33.29;101657.34;4947340;28;45456;-74
2022/07/13 08:42:47;;;;;;;;;4.00;4.00;;;;;29.13;33.40;101662.56;4946568;28;45754;-74
2022/07/13 08:45:12;;;;;;;;;5.33;4.33;;;;;29.18;33.31;101656.88;4946730;28;45851;-74
2022/07/13 08:47:39;;;;;;;;;5.00;5.00;;;;;29.00;32.58;101629.44;4947984;28;45699;-74
2022/07/13 08:50:07;;;;;;;;;5.00;5.00;;;;;29.12;31.27;101648.97;4947486;28;46697;-74
2022/07/13 08:52:35;;;;;;;;;5.00;5.00;;;;;29.07;32.19;101639.16;4946707;28;45634;-74
2022/07/13 08:55:05;;;;;;;;;7.00;5.67;;;;;29.05;34.40;101626.50;4946020;28;45579;-73
2022/07/13 08:57:34;;;;;;;;;4.00;3.00;;;;;29.13;32.00;101646.19;4947798;28;45458;-73
2022/07/13 09:00:00;;;;;;;;;5.33;5.33;;;;;29.17;34.46;101649.63;4962975;28;45504;-73
2022/07/13 09:02:26;;;;;;;;;5.67;4.67;;;;;29.14;31.25;101647.06;4946827;28;46492;-73
2022/07/13 09:04:52;;;;;;;;;6.67;5.00;;;;;29.16;34.06;101640.56;4947115;28;45840;-73
2022/07/13 09:07:17;;;;;;;;;4.00;4.00;;;;;29.28;32.96;101650.06;4947170;28;46177;-73
2022/07/13 09:09:43;;;;;;;;;6.00;6.00;;;;;29.17;31.89;101620.50;4947603;28;45470;-73
2022/07/13 09:12:21;;;;;;;;;6.00;6.00;;;;;29.42;30.98;101647.63;4947715;28;46623;-74
2022/07/13 09:14:54;;;;;;;;;5.00;5.00;;;;;29.42;31.61;101631.22;4947317;28;45964;-73
2022/07/13 09:17:39;;;;;;;;;6.00;6.00;;;;;29.58;31.61;101645.03;4948092;28;45554;-73
2022/07/13 09:20:10;;;;;;;;;5.00;5.00;;;;;29.67;30.93;101642.84;4947935;28;45708;-74
2022/07/13 09:22:55;;;;;;;;;4.67;4.67;;;;;29.71;30.55;101652.69;4950459;28;45999;-75
2022/07/13 09:25:32;;;;;;;;;4.00;4.00;;;;;29.36;30.53;101581.41;4950671;28;45885;-74
2022/07/13 09:28:01;;;;;;;;;5.67;4.33;;;;;29.78;30.23;101651.41;4936920;28;46698;-74
2022/07/13 09:30:28;;;;;;;;;5.00;5.00;;;;;29.81;29.50;101643.06;4949866;28;45626;-74
2022/07/13 09:32:54;;;;;;;;;5.67;5.67;;;;;29.93;30.01;101647.97;4949702;28;45543;-74
2022/07/13 09:35:21;;;;;;;;;6.67;6.00;;;;;30.05;29.28;101656.56;4948381;28;45550;-75
2022/07/13 09:37:47;;;;;;;;;5.00;5.00;;;;;30.08;28.52;101646.38;4949503;28;46097;-75
2022/07/13 09:40:14;;;;;;;;;5.33;5.33;;;;;30.08;29.43;101631.78;4950072;28;45477;-75
2022/07/13 09:42:42;;;;;;;;;7.67;5.67;;;;;30.24;29.50;101646.47;4945617;28;45583;-74
2022/07/13 09:47:58;;;;;;;;;6.67;5.00;;;;;30.26;28.31;101625.38;4948144;28;45604;-74
2022/07/13 09:50:39;;;;;;;;;6.00;4.67;;;;;30.44;29.24;101636.41;4950358;28;45411;-74
2022/07/13 09:53:27;;;;;;;;;6.00;5.00;;;;;30.29;28.17;101599.69;4947790;28;45413;-74
2022/07/13 09:55:53;;;;;;;;;5.00;4.00;;;;;30.57;28.47;101628.44;4946795;28;45533;-74
2022/07/13 09:58:30;;;;;;;;;6.33;5.67;;;;;30.65;28.65;101634.41;4948087;28;47526;-74
2022/07/13 10:01:01;;;;;;;;;6.00;5.00;;;;;30.53;28.22;101608.53;4947123;28;46209;-73
2022/07/13 10:03:30;;;;;;;;;5.00;4.33;;;;;30.69;27.98;101630.56;4947376;28;45522;-74
2022/07/13 10:05:58;;;;;;;;;5.33;5.33;;;;;30.70;27.78;101621.34;4947696;28;45863;-74
2022/07/13 10:08:24;;;;;;;;;5.67;4.67;;;;;30.82;28.00;101621.72;4949192;28;46293;-74
2022/07/13 10:10:52;;;;;;;;;6.67;5.00;;;;;30.92;27.55;101637.56;4949562;28;45514;-74
2022/07/13 10:13:18;;;;;;;;;5.00;5.00;;;;;30.95;27.82;101637.38;4950016;28;45523;-74
2022/07/13 10:15:46;;;;;;;;;6.00;5.33;;;;;30.91;27.55;101621.19;4949593;28;45472;-74
2022/07/13 10:18:19;;;;;;;;;6.00;5.00;;;;;30.96;28.37;101617.25;4946490;28;46573;-74
2022/07/13 10:20:51;;;;;;;;;6.00;5.33;;;;;31.08;28.17;101623.97;4946467;28;46008;-74
2022/07/13 10:23:32;;;;;;;;;4.00;4.00;;;;;31.20;27.50;101630.63;4949740;28;45570;-74
2022/07/13 10:25:58;;;;;;;;;6.33;6.00;;;;;31.11;27.72;101603.72;4946959;28;45560;-73
2022/07/13 10:28:23;;;;;;;;;6.33;5.33;;;;;31.23;27.72;101614.00;4947640;28;46354;-74
2022/07/13 10:30:49;;;;;;;;;7.00;4.67;;;;;31.34;27.14;101631.75;4945919;28;45626;-74
2022/07/13 10:33:18;;;;;;;;;4.00;4.00;;;;;31.39;26.54;101626.88;4948505;28;45865;-73
2022/07/13 10:35:52;;;;;;;;;5.33;4.67;;;;;31.36;27.80;101613.34;4947457;28;45705;-73
2022/07/13 10:38:27;;;;;;;;;4.00;4.00;;;;;31.53;26.73;101620.63;4949219;28;46350;-73
2022/07/13 10:41:21;;;;;;;;;5.67;4.67;;;;;31.46;26.40;101611.84;4948115;28;45449;-73
2022/07/13 10:43:54;;;;;;;;;5.67;5.00;;;;;31.58;26.60;101624.06;4948083;28;45653;-73
2022/07/13 10:46:45;;;;;;;;;5.00;5.00;;;;;31.66;26.62;101613.53;4949441;28;45432;-73
2022/07/13 10:49:35;;;;;;;;;6.00;6.00;;;;;31.70;25.92;101612.41;4947127;28;45786;-73
2022/07/13 10:52:19;;;;;;;;;6.00;6.00;;;;;31.77;26.27;101618.38;4946569;28;46476;-74
2022/07/13 10:55:03;;;;;;;;;4.67;4.33;;;;;31.85;25.19;101604.25;4947921;28;45785;-73
2022/07/13 10:57:30;;;;;;;;;4.00;3.00;;;;;31.85;24.70;101604.25;4947755;28;45552;-73
2022/07/13 11:00:03;;;;;;;;;4.00;4.00;;;;;31.96;24.92;101608.13;4947940;28;46205;-73
2022/07/13 11:02:49;;;;;;;;;4.00;4.00;;;;;31.98;24.27;101608.03;4945960;28;45563;-74
2022/07/13 11:05:21;;;;;;;;;4.00;4.00;;;;;31.96;24.87;101596.28;4945502;28;46215;-74
2022/07/13 11:07:48;;;;;;;;;4.00;4.00;;;;;32.03;24.41;101608.66;4946299;28;45414;-74
2022/07/13 11:10:23;;;;;;;;;4.33;4.00;;;;;32.12;24.99;101610.91;4947637;28;45516;-75
2022/07/13 11:13:02;;;;;;;;;4.00;4.00;;;;;32.11;24.58;101603.63;4946887;28;45746;-75
2022/07/13 11:15:50;;;;;;;;;4.00;4.00;;;;;32.22;24.86;101599.38;4946531;28;45651;-76
2022/07/13 11:18:21;;;;;;;;;6.00;4.00;;;;;32.24;24.76;101603.81;4949067;28;45651;-77
2022/07/13 11:21:05;;;;;;;;;3.33;3.33;;;;;32.29;24.31;101607.19;4946672;28;48223;-76
2022/07/13 11:26:44;;;;;;;;;5.67;5.00;;;;;32.35;24.38;101608.69;4948494;28;46085;-76
2022/07/13 11:29:27;;;;;;;;;4.00;4.00;;;;;32.39;24.13;101598.38;4948568;28;45928;-74
2022/07/13 11:31:57;;;;;;;;;3.67;3.67;;;;;32.34;24.40;101582.19;4947261;28;46173;-75
2022/07/13 11:34:23;;;;;;;;;4.00;4.00;;;;;32.43;23.81;101592.63;4952054;28;45923;-76
2022/07/13 11:36:49;;;;;;;;;6.00;4.67;;;;;32.48;24.32;101581.34;4953871;28;45409;-74